sensor_id;sensor_type;location;lat;lon;timestamp;temperature;humidity
49222;DHT22;35047;37.588;-122.048;2023-04-03T00:00:57;19.80;57.80
49222;DHT22;35047;37.588;-122.048;2023-04-03T00:03:24;19.90;57.00
49222;DHT22;35047;37.588;-122.048;2023-04-03T00:05:50;19.90;57.50
49222;DHT22;35047;37.588;-122.048;2023-04-03T00:08:19;19.90;56.90
49222;DHT22;35047;37.588;-122.048;2023-04-03T00:10:46;20.00;56.40
49222;DHT22;35047;37.588;-122.048;2023-04-03T00:13:14;19.80;56.50
49222;DHT22;35047;37.588;-122.048;2023-04-03T00:15:41;19.70;56.10
49222;DHT22;35047;37.588;-122.048;2023-04-03T00:18:08;19.60;56.40
49222;DHT22;35047;37.588;-122.048;2023-04-03T00:20:34;19.50;56.70
49222;DHT22;35047;37.588;-122.048;2023-04-03T00:23:02;19.60;55.70
49222;DHT22;35047;37.588;-122.048;2023-04-03T00:25:28;19.50;54.30
49222;DHT22;35047;37.588;-122.048;2023-04-03T00:27:55;19.40;55.80
49222;DHT22;35047;37.588;-122.048;2023-04-03T00:30:22;19.40;55.20
49222;DHT22;35047;37.588;-122.048;2023-04-03T00:32:49;19.50;54.50
49222;DHT22;35047;37.588;-122.048;2023-04-03T00:35:17;19.60;55.10
49222;DHT22;35047;37.588;-122.048;2023-04-03T00:37:44;19.60;55.20
49222;DHT22;35047;37.588;-122.048;2023-04-03T00:40:12;19.70;55.80
49222;DHT22;35047;37.588;-122.048;2023-04-03T00:42:42;19.70;56.10
49222;DHT22;35047;37.588;-122.048;2023-04-03T00:47:44;19.90;56.40
49222;DHT22;35047;37.588;-122.048;2023-04-03T00:50:11;19.80;56.00
49222;DHT22;35047;37.588;-122.048;2023-04-03T00:52:37;19.80;56.80
49222;DHT22;35047;37.588;-122.048;2023-04-03T00:55:08;19.60;57.40
49222;DHT22;35047;37.588;-122.048;2023-04-03T00:57:35;19.50;57.00
49222;DHT22;35047;37.588;-122.048;2023-04-03T01:00:08;19.40;57.30
49222;DHT22;35047;37.588;-122.048;2023-04-03T01:02:36;19.30;58.00
49222;DHT22;35047;37.588;-122.048;2023-04-03T01:05:03;19.40;58.50
49222;DHT22;35047;37.588;-122.048;2023-04-03T01:07:31;19.10;57.40
49222;DHT22;35047;37.588;-122.048;2023-04-03T01:10:02;19.00;58.40
49222;DHT22;35047;37.588;-122.048;2023-04-03T01:12:32;18.80;58.30
49222;DHT22;35047;37.588;-122.048;2023-04-03T01:15:11;18.80;59.40
49222;DHT22;35047;37.588;-122.048;2023-04-03T01:17:44;18.70;60.00
49222;DHT22;35047;37.588;-122.048;2023-04-03T01:25:52;18.60;61.70
49222;DHT22;35047;37.588;-122.048;2023-04-03T01:30:56;18.40;62.30
49222;DHT22;35047;37.588;-122.048;2023-04-03T01:33:24;18.40;62.30
49222;DHT22;35047;37.588;-122.048;2023-04-03T01:35:51;18.50;63.00
49222;DHT22;35047;37.588;-122.048;2023-04-03T01:38:17;18.50;62.60
49222;DHT22;35047;37.588;-122.048;2023-04-03T01:40:44;18.50;62.20
49222;DHT22;35047;37.588;-122.048;2023-04-03T01:43:10;18.60;62.10
49222;DHT22;35047;37.588;-122.048;2023-04-03T01:45:37;18.50;61.60
49222;DHT22;35047;37.588;-122.048;2023-04-03T01:48:04;18.40;61.50
49222;DHT22;35047;37.588;-122.048;2023-04-03T01:50:30;18.40;61.10
49222;DHT22;35047;37.588;-122.048;2023-04-03T01:52:57;18.30;60.90
49222;DHT22;35047;37.588;-122.048;2023-04-03T01:55:23;18.30;60.60
49222;DHT22;35047;37.588;-122.048;2023-04-03T01:57:50;18.40;60.90
49222;DHT22;35047;37.588;-122.048;2023-04-03T02:00:17;18.30;60.70
49222;DHT22;35047;37.588;-122.048;2023-04-03T02:02:44;18.30;60.30
49222;DHT22;35047;37.588;-122.048;2023-04-03T02:05:11;18.30;60.60
49222;DHT22;35047;37.588;-122.048;2023-04-03T02:07:37;18.20;60.00
49222;DHT22;35047;37.588;-122.048;2023-04-03T02:10:04;18.20;60.70
49222;DHT22;35047;37.588;-122.048;2023-04-03T02:12:32;18.20;61.00
49222;DHT22;35047;37.588;-122.048;2023-04-03T02:14:58;18.20;60.60
49222;DHT22;35047;37.588;-122.048;2023-04-03T02:17:25;18.20;60.60
49222;DHT22;35047;37.588;-122.048;2023-04-03T02:19:51;18.10;60.90
49222;DHT22;35047;37.588;-122.048;2023-04-03T02:22:18;18.20;60.80
49222;DHT22;35047;37.588;-122.048;2023-04-03T02:24:45;18.10;60.00
49222;DHT22;35047;37.588;-122.048;2023-04-03T02:27:12;18.00;59.60
49222;DHT22;35047;37.588;-122.048;2023-04-03T02:29:39;17.80;59.90
49222;DHT22;35047;37.588;-122.048;2023-04-03T02:32:05;17.70;60.60
49222;DHT22;35047;37.588;-122.048;2023-04-03T02:34:32;17.50;61.50
49222;DHT22;35047;37.588;-122.048;2023-04-03T02:36:58;17.50;62.00
49222;DHT22;35047;37.588;-122.048;2023-04-03T02:39:25;17.50;62.40
49222;DHT22;35047;37.588;-122.048;2023-04-03T02:41:52;17.60;62.50
49222;DHT22;35047;37.588;-122.048;2023-04-03T02:44:18;17.60;62.40
49222;DHT22;35047;37.588;-122.048;2023-04-03T02:46:45;17.60;62.80
49222;DHT22;35047;37.588;-122.048;2023-04-03T02:49:11;17.60;63.20
49222;DHT22;35047;37.588;-122.048;2023-04-03T02:51:38;17.40;63.20
49222;DHT22;35047;37.588;-122.048;2023-04-03T02:54:04;17.30;63.80
49222;DHT22;35047;37.588;-122.048;2023-04-03T02:56:31;17.30;63.90
49222;DHT22;35047;37.588;-122.048;2023-04-03T02:58:57;17.30;64.40
49222;DHT22;35047;37.588;-122.048;2023-04-03T03:01:25;17.20;65.00
49222;DHT22;35047;37.588;-122.048;2023-04-03T03:03:54;17.20;65.50
49222;DHT22;35047;37.588;-122.048;2023-04-03T03:06:21;17.30;65.30
49222;DHT22;35047;37.588;-122.048;2023-04-03T03:08:47;17.10;65.00
49222;DHT22;35047;37.588;-122.048;2023-04-03T03:11:14;17.10;65.20
49222;DHT22;35047;37.588;-122.048;2023-04-03T03:13:40;17.10;65.20
49222;DHT22;35047;37.588;-122.048;2023-04-03T03:16:07;17.10;65.20
49222;DHT22;35047;37.588;-122.048;2023-04-03T03:18:34;17.00;65.20
49222;DHT22;35047;37.588;-122.048;2023-04-03T03:21:02;17.00;65.60
49222;DHT22;35047;37.588;-122.048;2023-04-03T03:23:30;16.90;65.90
49222;DHT22;35047;37.588;-122.048;2023-04-03T03:25:59;16.90;66.20
49222;DHT22;35047;37.588;-122.048;2023-04-03T03:28:27;16.90;66.90
49222;DHT22;35047;37.588;-122.048;2023-04-03T03:30:53;16.80;66.50
49222;DHT22;35047;37.588;-122.048;2023-04-03T03:33:20;16.80;69.50
49222;DHT22;35047;37.588;-122.048;2023-04-03T03:35:46;16.90;71.70
49222;DHT22;35047;37.588;-122.048;2023-04-03T03:38:13;16.90;73.00
49222;DHT22;35047;37.588;-122.048;2023-04-03T03:40:39;16.90;72.60
49222;DHT22;35047;37.588;-122.048;2023-04-03T03:43:06;16.90;72.60
49222;DHT22;35047;37.588;-122.048;2023-04-03T03:45:32;16.90;73.10
49222;DHT22;35047;37.588;-122.048;2023-04-03T03:47:59;16.90;73.20
49222;DHT22;35047;37.588;-122.048;2023-04-03T03:50:25;16.90;72.00
49222;DHT22;35047;37.588;-122.048;2023-04-03T03:52:52;16.90;72.60
49222;DHT22;35047;37.588;-122.048;2023-04-03T03:55:19;16.90;71.10
49222;DHT22;35047;37.588;-122.048;2023-04-03T03:57:46;16.90;70.60
49222;DHT22;35047;37.588;-122.048;2023-04-03T04:00:13;16.80;70.10
49222;DHT22;35047;37.588;-122.048;2023-04-03T04:02:40;16.80;69.90
49222;DHT22;35047;37.588;-122.048;2023-04-03T04:05:07;16.70;70.50
49222;DHT22;35047;37.588;-122.048;2023-04-03T04:07:33;16.60;71.00
49222;DHT22;35047;37.588;-122.048;2023-04-03T04:10:00;16.50;71.00
49222;DHT22;35047;37.588;-122.048;2023-04-03T04:12:27;16.40;70.40
49222;DHT22;35047;37.588;-122.048;2023-04-03T04:14:53;16.40;69.20
49222;DHT22;35047;37.588;-122.048;2023-04-03T04:17:21;16.30;68.30
49222;DHT22;35047;37.588;-122.048;2023-04-03T04:19:47;16.30;67.90
49222;DHT22;35047;37.588;-122.048;2023-04-03T04:22:14;16.30;67.80
49222;DHT22;35047;37.588;-122.048;2023-04-03T04:24:40;16.30;67.40
49222;DHT22;35047;37.588;-122.048;2023-04-03T04:27:07;16.30;67.10
49222;DHT22;35047;37.588;-122.048;2023-04-03T04:29:33;16.20;67.30
49222;DHT22;35047;37.588;-122.048;2023-04-03T04:32:03;16.20;67.20
49222;DHT22;35047;37.588;-122.048;2023-04-03T04:34:29;16.20;67.70
49222;DHT22;35047;37.588;-122.048;2023-04-03T04:36:56;16.20;67.70
49222;DHT22;35047;37.588;-122.048;2023-04-03T04:39:22;16.30;68.00
49222;DHT22;35047;37.588;-122.048;2023-04-03T04:41:49;16.30;68.10
49222;DHT22;35047;37.588;-122.048;2023-04-03T04:44:15;16.40;67.70
49222;DHT22;35047;37.588;-122.048;2023-04-03T04:46:42;16.40;67.60
49222;DHT22;35047;37.588;-122.048;2023-04-03T04:49:08;16.40;66.00
49222;DHT22;35047;37.588;-122.048;2023-04-03T04:51:35;16.30;65.20
49222;DHT22;35047;37.588;-122.048;2023-04-03T04:54:02;16.30;64.80
49222;DHT22;35047;37.588;-122.048;2023-04-03T04:56:29;16.20;64.90
49222;DHT22;35047;37.588;-122.048;2023-04-03T04:58:55;16.20;65.10
49222;DHT22;35047;37.588;-122.048;2023-04-03T05:01:22;16.20;64.20
49222;DHT22;35047;37.588;-122.048;2023-04-03T05:03:48;16.10;64.00
49222;DHT22;35047;37.588;-122.048;2023-04-03T05:06:15;16.10;64.30
49222;DHT22;35047;37.588;-122.048;2023-04-03T05:08:41;15.90;64.10
49222;DHT22;35047;37.588;-122.048;2023-04-03T05:11:08;15.80;64.10
49222;DHT22;35047;37.588;-122.048;2023-04-03T05:13:34;15.80;64.50
49222;DHT22;35047;37.588;-122.048;2023-04-03T05:16:01;15.70;64.30
49222;DHT22;35047;37.588;-122.048;2023-04-03T05:18:27;15.70;64.70
49222;DHT22;35047;37.588;-122.048;2023-04-03T05:20:54;15.60;65.30
49222;DHT22;35047;37.588;-122.048;2023-04-03T05:23:20;15.60;65.30
49222;DHT22;35047;37.588;-122.048;2023-04-03T05:25:47;15.50;65.30
49222;DHT22;35047;37.588;-122.048;2023-04-03T05:28:14;15.50;65.60
49222;DHT22;35047;37.588;-122.048;2023-04-03T05:30:41;15.50;66.00
49222;DHT22;35047;37.588;-122.048;2023-04-03T05:33:08;15.50;66.20
49222;DHT22;35047;37.588;-122.048;2023-04-03T05:35:38;15.60;66.10
49222;DHT22;35047;37.588;-122.048;2023-04-03T05:38:07;15.60;65.80
49222;DHT22;35047;37.588;-122.048;2023-04-03T05:40:33;15.60;66.00
49222;DHT22;35047;37.588;-122.048;2023-04-03T05:43:00;15.60;65.60
49222;DHT22;35047;37.588;-122.048;2023-04-03T05:45:27;15.60;65.70
49222;DHT22;35047;37.588;-122.048;2023-04-03T05:47:53;15.60;65.60
49222;DHT22;35047;37.588;-122.048;2023-04-03T05:50:20;15.60;65.80
49222;DHT22;35047;37.588;-122.048;2023-04-03T05:52:49;15.60;65.80
49222;DHT22;35047;37.588;-122.048;2023-04-03T05:55:15;15.60;65.50
49222;DHT22;35047;37.588;-122.048;2023-04-03T05:57:42;15.60;65.10
49222;DHT22;35047;37.588;-122.048;2023-04-03T06:00:12;15.50;66.00
49222;DHT22;35047;37.588;-122.048;2023-04-03T06:02:40;15.60;65.70
49222;DHT22;35047;37.588;-122.048;2023-04-03T06:05:08;15.50;65.10
49222;DHT22;35047;37.588;-122.048;2023-04-03T06:07:35;15.40;64.80
49222;DHT22;35047;37.588;-122.048;2023-04-03T06:10:03;15.40;64.90
49222;DHT22;35047;37.588;-122.048;2023-04-03T06:12:31;15.30;64.80
49222;DHT22;35047;37.588;-122.048;2023-04-03T06:14:57;15.20;65.20
49222;DHT22;35047;37.588;-122.048;2023-04-03T06:17:24;15.20;65.50
49222;DHT22;35047;37.588;-122.048;2023-04-03T06:19:51;15.20;65.70
49222;DHT22;35047;37.588;-122.048;2023-04-03T06:22:17;15.10;65.70
49222;DHT22;35047;37.588;-122.048;2023-04-03T06:24:44;15.10;64.60
49222;DHT22;35047;37.588;-122.048;2023-04-03T06:27:11;15.00;63.90
49222;DHT22;35047;37.588;-122.048;2023-04-03T06:29:38;15.00;64.70
49222;DHT22;35047;37.588;-122.048;2023-04-03T06:32:04;14.90;65.30
49222;DHT22;35047;37.588;-122.048;2023-04-03T06:34:31;14.90;65.20
49222;DHT22;35047;37.588;-122.048;2023-04-03T06:36:59;14.90;65.20
49222;DHT22;35047;37.588;-122.048;2023-04-03T06:39:25;14.80;65.20
49222;DHT22;35047;37.588;-122.048;2023-04-03T06:41:53;14.80;64.60
49222;DHT22;35047;37.588;-122.048;2023-04-03T06:44:19;14.70;64.90
49222;DHT22;35047;37.588;-122.048;2023-04-03T06:46:46;14.70;65.20
49222;DHT22;35047;37.588;-122.048;2023-04-03T06:49:12;14.70;65.40
49222;DHT22;35047;37.588;-122.048;2023-04-03T06:51:39;14.70;65.20
49222;DHT22;35047;37.588;-122.048;2023-04-03T06:54:06;14.70;65.20
49222;DHT22;35047;37.588;-122.048;2023-04-03T06:56:34;14.70;65.30
49222;DHT22;35047;37.588;-122.048;2023-04-03T06:59:01;14.80;65.40
49222;DHT22;35047;37.588;-122.048;2023-04-03T07:01:30;14.90;65.20
49222;DHT22;35047;37.588;-122.048;2023-04-03T07:03:56;14.90;65.40
49222;DHT22;35047;37.588;-122.048;2023-04-03T07:06:24;14.90;65.30
49222;DHT22;35047;37.588;-122.048;2023-04-03T07:08:53;14.90;64.80
49222;DHT22;35047;37.588;-122.048;2023-04-03T07:11:19;14.90;65.00
49222;DHT22;35047;37.588;-122.048;2023-04-03T07:13:46;14.90;65.00
49222;DHT22;35047;37.588;-122.048;2023-04-03T07:16:12;14.90;64.50
49222;DHT22;35047;37.588;-122.048;2023-04-03T07:18:39;14.90;64.00
49222;DHT22;35047;37.588;-122.048;2023-04-03T07:21:06;14.90;63.30
49222;DHT22;35047;37.588;-122.048;2023-04-03T07:23:32;14.90;63.40
49222;DHT22;35047;37.588;-122.048;2023-04-03T07:25:59;14.80;63.20
49222;DHT22;35047;37.588;-122.048;2023-04-03T07:28:25;14.80;63.30
49222;DHT22;35047;37.588;-122.048;2023-04-03T07:31:00;14.80;63.30
49222;DHT22;35047;37.588;-122.048;2023-04-03T07:33:27;14.70;63.50
49222;DHT22;35047;37.588;-122.048;2023-04-03T07:35:53;14.70;63.40
49222;DHT22;35047;37.588;-122.048;2023-04-03T07:38:20;14.80;63.30
49222;DHT22;35047;37.588;-122.048;2023-04-03T07:40:51;14.70;63.50
49222;DHT22;35047;37.588;-122.048;2023-04-03T07:43:19;14.70;63.50
49222;DHT22;35047;37.588;-122.048;2023-04-03T07:45:47;14.70;64.00
49222;DHT22;35047;37.588;-122.048;2023-04-03T07:48:21;14.80;64.00
49222;DHT22;35047;37.588;-122.048;2023-04-03T07:50:48;14.80;64.00
49222;DHT22;35047;37.588;-122.048;2023-04-03T07:53:16;14.80;64.30
49222;DHT22;35047;37.588;-122.048;2023-04-03T07:55:45;14.80;64.30
49222;DHT22;35047;37.588;-122.048;2023-04-03T07:58:14;14.90;64.10
49222;DHT22;35047;37.588;-122.048;2023-04-03T08:00:41;14.90;63.60
49222;DHT22;35047;37.588;-122.048;2023-04-03T08:03:09;14.90;63.60
49222;DHT22;35047;37.588;-122.048;2023-04-03T08:05:38;14.90;63.10
49222;DHT22;35047;37.588;-122.048;2023-04-03T08:08:06;14.90;62.70
49222;DHT22;35047;37.588;-122.048;2023-04-03T08:10:33;14.90;62.40
49222;DHT22;35047;37.588;-122.048;2023-04-03T08:13:00;15.00;61.90
49222;DHT22;35047;37.588;-122.048;2023-04-03T08:15:27;15.00;61.80
49222;DHT22;35047;37.588;-122.048;2023-04-03T08:17:54;15.10;61.80
49222;DHT22;35047;37.588;-122.048;2023-04-03T08:20:21;15.10;61.30
49222;DHT22;35047;37.588;-122.048;2023-04-03T08:22:47;15.10;60.20
49222;DHT22;35047;37.588;-122.048;2023-04-03T08:25:14;15.10;59.90
49222;DHT22;35047;37.588;-122.048;2023-04-03T08:27:41;15.10;59.10
49222;DHT22;35047;37.588;-122.048;2023-04-03T08:30:08;15.10;58.60
49222;DHT22;35047;37.588;-122.048;2023-04-03T08:32:35;15.10;58.80
49222;DHT22;35047;37.588;-122.048;2023-04-03T08:35:03;15.00;58.70
49222;DHT22;35047;37.588;-122.048;2023-04-03T08:37:29;15.00;58.30
49222;DHT22;35047;37.588;-122.048;2023-04-03T08:39:57;15.00;58.10
49222;DHT22;35047;37.588;-122.048;2023-04-03T08:45:32;14.80;58.00
49222;DHT22;35047;37.588;-122.048;2023-04-03T08:48:24;14.80;59.10
49222;DHT22;35047;37.588;-122.048;2023-04-03T08:50:56;14.90;58.40
49222;DHT22;35047;37.588;-122.048;2023-04-03T08:53:28;14.90;58.20
49222;DHT22;35047;37.588;-122.048;2023-04-03T08:55:58;14.80;58.30
49222;DHT22;35047;37.588;-122.048;2023-04-03T08:58:31;14.70;57.90
49222;DHT22;35047;37.588;-122.048;2023-04-03T09:01:03;14.70;57.80
49222;DHT22;35047;37.588;-122.048;2023-04-03T09:03:32;14.60;58.20
49222;DHT22;35047;37.588;-122.048;2023-04-03T09:14:33;14.60;58.00
49222;DHT22;35047;37.588;-122.048;2023-04-03T09:17:20;14.60;57.20
49222;DHT22;35047;37.588;-122.048;2023-04-03T09:20:37;14.60;56.90
49222;DHT22;35047;37.588;-122.048;2023-04-03T09:25:45;14.40;57.10
49222;DHT22;35047;37.588;-122.048;2023-04-03T09:28:13;14.40;57.10
49222;DHT22;35047;37.588;-122.048;2023-04-03T09:30:39;14.40;57.10
49222;DHT22;35047;37.588;-122.048;2023-04-03T09:33:06;14.30;56.90
49222;DHT22;35047;37.588;-122.048;2023-04-03T09:35:34;14.30;56.90
49222;DHT22;35047;37.588;-122.048;2023-04-03T09:38:18;14.30;57.80
49222;DHT22;35047;37.588;-122.048;2023-04-03T09:41:02;14.40;57.40
49222;DHT22;35047;37.588;-122.048;2023-04-03T09:43:32;14.20;57.40
49222;DHT22;35047;37.588;-122.048;2023-04-03T09:46:20;14.20;57.60
49222;DHT22;35047;37.588;-122.048;2023-04-03T09:49:03;14.20;57.90
49222;DHT22;35047;37.588;-122.048;2023-04-03T09:51:31;14.10;58.40
49222;DHT22;35047;37.588;-122.048;2023-04-03T09:53:58;14.10;58.40
49222;DHT22;35047;37.588;-122.048;2023-04-03T09:56:29;14.10;58.50
49222;DHT22;35047;37.588;-122.048;2023-04-03T10:01:39;14.00;58.70
49222;DHT22;35047;37.588;-122.048;2023-04-03T10:04:09;13.90;58.00
49222;DHT22;35047;37.588;-122.048;2023-04-03T10:06:40;13.80;57.70
49222;DHT22;35047;37.588;-122.048;2023-04-03T10:09:20;13.80;57.80
49222;DHT22;35047;37.588;-122.048;2023-04-03T10:14:39;13.60;57.90
49222;DHT22;35047;37.588;-122.048;2023-04-03T10:17:15;13.60;58.40
49222;DHT22;35047;37.588;-122.048;2023-04-03T10:30:54;13.50;59.00
49222;DHT22;35047;37.588;-122.048;2023-04-03T10:47:28;13.70;58.00
49222;DHT22;35047;37.588;-122.048;2023-04-03T10:50:29;13.80;58.10
49222;DHT22;35047;37.588;-122.048;2023-04-03T10:53:30;13.80;58.40
49222;DHT22;35047;37.588;-122.048;2023-04-03T11:02:13;13.70;57.40
49222;DHT22;35047;37.588;-122.048;2023-04-03T11:04:43;13.70;57.10
49222;DHT22;35047;37.588;-122.048;2023-04-03T11:07:25;13.70;57.80
49222;DHT22;35047;37.588;-122.048;2023-04-03T11:10:06;13.60;57.30
49222;DHT22;35047;37.588;-122.048;2023-04-03T11:12:44;13.70;57.60
49222;DHT22;35047;37.588;-122.048;2023-04-03T11:15:23;13.80;57.00
49222;DHT22;35047;37.588;-122.048;2023-04-03T11:20:21;13.80;56.90
49222;DHT22;35047;37.588;-122.048;2023-04-03T11:23:06;13.80;57.00
49222;DHT22;35047;37.588;-122.048;2023-04-03T11:25:34;13.80;56.50
49222;DHT22;35047;37.588;-122.048;2023-04-03T11:28:06;13.90;56.60
49222;DHT22;35047;37.588;-122.048;2023-04-03T11:31:06;13.90;56.70
49222;DHT22;35047;37.588;-122.048;2023-04-03T11:33:39;13.90;56.30
49222;DHT22;35047;37.588;-122.048;2023-04-03T11:36:28;13.80;56.30
49222;DHT22;35047;37.588;-122.048;2023-04-03T11:38:59;13.70;55.60
49222;DHT22;35047;37.588;-122.048;2023-04-03T11:41:29;13.70;55.60
49222;DHT22;35047;37.588;-122.048;2023-04-03T11:44:06;13.70;55.40
49222;DHT22;35047;37.588;-122.048;2023-04-03T11:46:56;13.60;55.20
49222;DHT22;35047;37.588;-122.048;2023-04-03T11:50:00;13.60;55.60
49222;DHT22;35047;37.588;-122.048;2023-04-03T11:52:57;13.60;55.30
49222;DHT22;35047;37.588;-122.048;2023-04-03T12:05:57;13.50;54.70
49222;DHT22;35047;37.588;-122.048;2023-04-03T12:16:34;13.50;55.40
49222;DHT22;35047;37.588;-122.048;2023-04-03T12:19:31;13.50;55.30
49222;DHT22;35047;37.588;-122.048;2023-04-03T12:24:38;13.50;55.20
49222;DHT22;35047;37.588;-122.048;2023-04-03T12:35:26;13.60;55.40
49222;DHT22;35047;37.588;-122.048;2023-04-03T12:46:49;13.60;55.40
49222;DHT22;35047;37.588;-122.048;2023-04-03T12:51:55;13.60;55.90
49222;DHT22;35047;37.588;-122.048;2023-04-03T12:54:37;13.50;55.10
49222;DHT22;35047;37.588;-122.048;2023-04-03T12:57:25;13.40;55.30
49222;DHT22;35047;37.588;-122.048;2023-04-03T12:59:53;13.40;55.10
49222;DHT22;35047;37.588;-122.048;2023-04-03T13:02:25;13.30;55.10
49222;DHT22;35047;37.588;-122.048;2023-04-03T13:04:58;13.30;55.40
49222;DHT22;35047;37.588;-122.048;2023-04-03T13:07:30;13.40;55.70
49222;DHT22;35047;37.588;-122.048;2023-04-03T13:12:35;13.30;55.50
49222;DHT22;35047;37.588;-122.048;2023-04-03T13:15:39;13.30;55.20
49222;DHT22;35047;37.588;-122.048;2023-04-03T13:18:20;13.30;55.40
49222;DHT22;35047;37.588;-122.048;2023-04-03T13:20:48;13.30;55.20
49222;DHT22;35047;37.588;-122.048;2023-04-03T13:23:17;13.30;56.00
49222;DHT22;35047;37.588;-122.048;2023-04-03T13:25:47;13.30;55.60
49222;DHT22;35047;37.588;-122.048;2023-04-03T13:28:15;13.40;55.50
49222;DHT22;35047;37.588;-122.048;2023-04-03T13:30:58;13.40;55.80
49222;DHT22;35047;37.588;-122.048;2023-04-03T13:33:29;13.50;55.60
49222;DHT22;35047;37.588;-122.048;2023-04-03T13:39:06;13.50;54.80
49222;DHT22;35047;37.588;-122.048;2023-04-03T13:41:36;13.50;55.80
49222;DHT22;35047;37.588;-122.048;2023-04-03T13:46:53;13.50;55.90
49222;DHT22;35047;37.588;-122.048;2023-04-03T13:49:31;13.50;55.20
49222;DHT22;35047;37.588;-122.048;2023-04-03T13:51:59;13.50;55.60
49222;DHT22;35047;37.588;-122.048;2023-04-03T13:54:37;13.50;55.30
49222;DHT22;35047;37.588;-122.048;2023-04-03T13:57:15;13.40;55.60
49222;DHT22;35047;37.588;-122.048;2023-04-03T13:59:43;13.40;55.60
49222;DHT22;35047;37.588;-122.048;2023-04-03T14:02:22;13.50;55.40
49222;DHT22;35047;37.588;-122.048;2023-04-03T14:04:57;13.40;55.20
49222;DHT22;35047;37.588;-122.048;2023-04-03T14:07:26;13.40;54.70
49222;DHT22;35047;37.588;-122.048;2023-04-03T14:09:53;13.30;54.40
49222;DHT22;35047;37.588;-122.048;2023-04-03T14:12:37;13.30;54.30
49222;DHT22;35047;37.588;-122.048;2023-04-03T14:15:23;13.30;54.80
49222;DHT22;35047;37.588;-122.048;2023-04-03T14:17:51;13.20;55.30
49222;DHT22;35047;37.588;-122.048;2023-04-03T14:20:21;13.20;55.20
49222;DHT22;35047;37.588;-122.048;2023-04-03T14:22:48;13.10;54.10
49222;DHT22;35047;37.588;-122.048;2023-04-03T14:25:16;13.10;54.90
49222;DHT22;35047;37.588;-122.048;2023-04-03T14:27:48;13.10;54.50
49222;DHT22;35047;37.588;-122.048;2023-04-03T14:30:50;13.10;55.00
49222;DHT22;35047;37.588;-122.048;2023-04-03T14:33:14;13.00;54.40
49222;DHT22;35047;37.588;-122.048;2023-04-03T14:35:41;12.90;54.10
49222;DHT22;35047;37.588;-122.048;2023-04-03T14:38:26;12.90;53.80
49222;DHT22;35047;37.588;-122.048;2023-04-03T14:40:54;12.90;55.00
49222;DHT22;35047;37.588;-122.048;2023-04-03T14:43:21;12.90;54.50
49222;DHT22;35047;37.588;-122.048;2023-04-03T14:45:49;12.90;54.60
49222;DHT22;35047;37.588;-122.048;2023-04-03T14:48:17;12.90;54.70
49222;DHT22;35047;37.588;-122.048;2023-04-03T14:50:44;12.90;54.70
49222;DHT22;35047;37.588;-122.048;2023-04-03T14:53:12;12.90;54.40
49222;DHT22;35047;37.588;-122.048;2023-04-03T14:55:43;12.90;54.10
49222;DHT22;35047;37.588;-122.048;2023-04-03T14:58:13;12.80;54.10
49222;DHT22;35047;37.588;-122.048;2023-04-03T15:00:41;12.80;54.50
49222;DHT22;35047;37.588;-122.048;2023-04-03T15:03:20;12.80;55.00
49222;DHT22;35047;37.588;-122.048;2023-04-03T15:05:48;12.90;55.00
49222;DHT22;35047;37.588;-122.048;2023-04-03T15:08:22;12.90;56.00
49222;DHT22;35047;37.588;-122.048;2023-04-03T15:10:50;13.00;55.50
49222;DHT22;35047;37.588;-122.048;2023-04-03T15:13:19;13.20;55.40
49222;DHT22;35047;37.588;-122.048;2023-04-03T15:15:46;13.20;55.20
49222;DHT22;35047;37.588;-122.048;2023-04-03T15:18:19;13.30;54.80
49222;DHT22;35047;37.588;-122.048;2023-04-03T15:20:48;13.40;54.60
49222;DHT22;35047;37.588;-122.048;2023-04-03T15:23:15;13.40;53.60
49222;DHT22;35047;37.588;-122.048;2023-04-03T15:25:44;13.50;53.90
49222;DHT22;35047;37.588;-122.048;2023-04-03T15:30:50;13.60;53.60
49222;DHT22;35047;37.588;-122.048;2023-04-03T15:33:17;13.60;53.40
49222;DHT22;35047;37.588;-122.048;2023-04-03T15:35:43;13.60;52.70
49222;DHT22;35047;37.588;-122.048;2023-04-03T15:38:11;13.60;53.20
49222;DHT22;35047;37.588;-122.048;2023-04-03T15:40:37;13.70;53.30
49222;DHT22;35047;37.588;-122.048;2023-04-03T15:43:05;13.70;53.40
49222;DHT22;35047;37.588;-122.048;2023-04-03T15:45:34;13.80;52.50
49222;DHT22;35047;37.588;-122.048;2023-04-03T15:48:02;13.80;54.00
49222;DHT22;35047;37.588;-122.048;2023-04-03T15:50:29;13.80;52.10
49222;DHT22;35047;37.588;-122.048;2023-04-03T15:52:56;13.80;51.30
49222;DHT22;35047;37.588;-122.048;2023-04-03T15:55:27;13.70;52.10
49222;DHT22;35047;37.588;-122.048;2023-04-03T15:57:54;13.60;52.40
49222;DHT22;35047;37.588;-122.048;2023-04-03T16:00:21;13.60;53.00
49222;DHT22;35047;37.588;-122.048;2023-04-03T16:02:55;13.70;52.90
49222;DHT22;35047;37.588;-122.048;2023-04-03T16:05:23;13.70;52.90
49222;DHT22;35047;37.588;-122.048;2023-04-03T16:07:50;13.70;52.10
49222;DHT22;35047;37.588;-122.048;2023-04-03T16:10:18;13.70;52.30
49222;DHT22;35047;37.588;-122.048;2023-04-03T16:12:45;13.70;51.50
49222;DHT22;35047;37.588;-122.048;2023-04-03T16:15:12;13.80;51.50
49222;DHT22;35047;37.588;-122.048;2023-04-03T16:17:40;13.80;51.20
49222;DHT22;35047;37.588;-122.048;2023-04-03T16:20:10;13.90;51.50
49222;DHT22;35047;37.588;-122.048;2023-04-03T16:22:37;13.90;51.80
49222;DHT22;35047;37.588;-122.048;2023-04-03T16:25:06;14.00;50.50
49222;DHT22;35047;37.588;-122.048;2023-04-03T16:27:33;14.00;50.50
49222;DHT22;35047;37.588;-122.048;2023-04-03T16:30:00;14.10;51.60
49222;DHT22;35047;37.588;-122.048;2023-04-03T16:32:29;14.10;51.10
49222;DHT22;35047;37.588;-122.048;2023-04-03T16:34:56;14.20;51.10
49222;DHT22;35047;37.588;-122.048;2023-04-03T16:37:23;14.20;50.40
49222;DHT22;35047;37.588;-122.048;2023-04-03T16:39:50;14.30;48.90
49222;DHT22;35047;37.588;-122.048;2023-04-03T16:42:16;14.20;49.30
49222;DHT22;35047;37.588;-122.048;2023-04-03T16:44:43;14.30;49.50
49222;DHT22;35047;37.588;-122.048;2023-04-03T16:47:09;14.40;50.40
49222;DHT22;35047;37.588;-122.048;2023-04-03T16:49:36;14.60;49.40
49222;DHT22;35047;37.588;-122.048;2023-04-03T16:52:04;14.80;49.60
49222;DHT22;35047;37.588;-122.048;2023-04-03T16:54:31;14.90;49.20
49222;DHT22;35047;37.588;-122.048;2023-04-03T16:56:59;15.00;49.00
49222;DHT22;35047;37.588;-122.048;2023-04-03T16:59:25;15.20;48.40